< < Back
Terminal Aerodrome Forecast


Current Version              Previous Versions:   1  2  3  4  5  6  7  8  9  

Terminal Aerodrome Forecast

438
FTUS42 KTAE 221100
TAFVLD
TAF
KVLD 221123Z 2212/2312 00000KT P6SM SKC
     FM221500 02006KT P6SM SKC=

Latest METAR

580
SAUS70 KWBC 230000 RRC
MTRVLD
METAR KVLD 222353Z 01003KT 10SM CLR 14/08 A3002 RMK AO2 SLP175 T01440078
10250 20144 53011


USA.gov is the U.S. government's official web portal to all federal, state and local government web resources and services.